Time;durP1;ratioP1;P1;durP2;ratioP2;P2;SDS_P1;SDS_P2;PMS_P1;PMS_P2;Temp;Humidity;BMP_temperature;BMP_pressure;BME280_temperature;BME280_humidity;BME280_pressure;Samples;Min_cycle;Max_cycle;Signal;HPM_P1;HPM_P2
2023/12/13 00:01:27;;;;;;;20.17;13.00;;;7.90;99.90;;;;;;4978736;28;87788;-32
2023/12/13 00:03:53;;;;;;;22.25;14.32;;;7.90;99.90;;;;;;4979271;28;90235;-36
2023/12/13 00:06:19;;;;;;;19.30;12.07;;;7.90;99.90;;;;;;4979161;28;89611;-32
2023/12/13 00:08:45;;;;;;;18.83;13.52;;;7.90;99.90;;;;;;4978477;28;89041;-28
2023/12/13 00:11:11;;;;;;;20.95;12.02;;;7.90;99.90;;;;;;4978552;28;87694;-30
2023/12/13 00:13:37;;;;;;;22.17;13.25;;;7.90;99.90;;;;;;4979020;28;91314;-31
2023/12/13 00:16:03;;;;;;;20.58;13.90;;;7.90;99.90;;;;;;4978218;28;89790;-31
2023/12/13 00:18:28;;;;;;;23.02;15.60;;;7.80;99.90;;;;;;4979772;28;87955;-30
2023/12/13 00:20:54;;;;;;;17.92;12.98;;;7.80;99.90;;;;;;4978339;28;89626;-31
2023/12/13 00:23:20;;;;;;;25.63;15.77;;;7.80;99.90;;;;;;4979232;28;90546;-30
2023/12/13 00:25:45;;;;;;;19.77;12.60;;;7.80;99.90;;;;;;4978707;28;89903;-31
2023/12/13 00:28:11;;;;;;;18.33;11.77;;;7.90;99.90;;;;;;4980008;28;89451;-33
2023/12/13 00:30:37;;;;;;;21.73;14.75;;;7.80;99.90;;;;;;4982209;28;89032;-31
2023/12/13 00:33:02;;;;;;;19.83;13.15;;;7.80;99.90;;;;;;4981796;28;89374;-31
2023/12/13 00:35:28;;;;;;;21.58;12.98;;;7.80;99.90;;;;;;4981868;28;89597;-32
2023/12/13 00:37:57;;;;;;;21.58;12.40;;;7.70;99.90;;;;;;4982333;28;89864;-31
2023/12/13 00:40:24;;;;;;;19.75;12.45;;;7.70;99.90;;;;;;4982438;28;88186;-31
2023/12/13 00:42:49;;;;;;;25.00;12.90;;;7.70;99.90;;;;;;4982550;28;90145;-32
2023/12/13 00:45:15;;;;;;;23.88;13.73;;;7.70;99.90;;;;;;4981842;28;90448;-30
2023/12/13 00:47:41;;;;;;;22.15;14.57;;;7.70;99.90;;;;;;4982636;28;88284;-30
2023/12/13 00:50:07;;;;;;;25.35;13.98;;;7.70;99.90;;;;;;4982211;28;89894;-29
2023/12/13 00:52:34;;;;;;;19.20;12.05;;;7.70;99.90;;;;;;4981716;28;90631;-32
2023/12/13 00:55:00;;;;;;;24.17;13.43;;;7.70;99.90;;;;;;4981537;28;89674;-34
2023/12/13 00:57:27;;;;;;;32.67;13.15;;;7.70;99.90;;;;;;4983043;28;87787;-30
2023/12/13 00:59:53;;;;;;;20.52;13.77;;;7.70;99.90;;;;;;4981395;28;88279;-30
2023/12/13 01:02:18;;;;;;;21.27;13.18;;;7.70;99.90;;;;;;4982661;28;90056;-31
2023/12/13 01:04:44;;;;;;;23.77;15.43;;;7.60;99.90;;;;;;4975240;28;89841;-30
2023/12/13 01:07:11;;;;;;;23.48;14.88;;;7.60;99.90;;;;;;4981910;28;90199;-34
2023/12/13 01:09:36;;;;;;;24.25;16.25;;;7.60;99.90;;;;;;4982315;28;87540;-31
2023/12/13 01:12:02;;;;;;;24.33;15.30;;;7.60;99.90;;;;;;4981373;28;90376;-32
2023/12/13 01:14:28;;;;;;;23.90;14.30;;;7.60;99.90;;;;;;4992324;28;88350;-33
2023/12/13 01:16:54;;;;;;;22.80;15.18;;;7.60;99.90;;;;;;4981301;28;89467;-31
2023/12/13 01:19:19;;;;;;;19.83;13.20;;;7.60;99.90;;;;;;4981413;28;88828;-32
2023/12/13 01:21:45;;;;;;;25.05;15.40;;;7.60;99.90;;;;;;4982105;28;90116;-31
2023/12/13 01:24:11;;;;;;;20.65;12.40;;;7.60;99.90;;;;;;4981155;28;89532;-30
2023/12/13 01:26:36;;;;;;;24.77;15.38;;;7.60;99.90;;;;;;4981746;28;90475;-30
2023/12/13 01:29:02;;;;;;;25.50;13.45;;;7.60;99.90;;;;;;4980894;28;89526;-29
2023/12/13 01:31:27;;;;;;;19.60;12.90;;;7.60;99.90;;;;;;4982064;28;89230;-33
2023/12/13 01:33:53;;;;;;;16.48;12.30;;;7.60;99.90;;;;;;4980916;28;89295;-35
2023/12/13 01:36:19;;;;;;;23.35;14.75;;;7.60;99.90;;;;;;4980277;28;89674;-33
2023/12/13 01:38:44;;;;;;;20.73;13.98;;;7.60;99.90;;;;;;4981620;28;90133;-30
2023/12/13 01:41:10;;;;;;;25.63;14.93;;;7.60;99.90;;;;;;4980853;28;90258;-30
2023/12/13 01:43:35;;;;;;;19.88;11.43;;;7.60;99.90;;;;;;4981583;28;89600;-32
2023/12/13 01:46:02;;;;;;;18.23;13.30;;;7.60;99.90;;;;;;4979645;28;90363;-30
2023/12/13 01:48:29;;;;;;;19.80;13.57;;;7.60;99.90;;;;;;4980653;28;89029;-30
2023/12/13 01:50:55;;;;;;;17.35;13.45;;;7.70;99.90;;;;;;4981313;28;90073;-29
2023/12/13 01:53:23;;;;;;;18.73;13.13;;;7.60;99.90;;;;;;4980986;28;90037;-32
2023/12/13 01:55:49;;;;;;;17.23;11.00;;;7.60;99.90;;;;;;4981353;28;88783;-30
2023/12/13 01:58:16;;;;;;;15.80;11.00;;;7.60;99.90;;;;;;4980858;28;87529;-33
2023/12/13 02:00:43;;;;;;;18.48;11.18;;;7.60;99.90;;;;;;4981076;28;90164;-32
2023/12/13 02:03:11;;;;;;;19.00;12.23;;;7.60;99.90;;;;;;4980382;28;90350;-30
2023/12/13 02:05:38;;;;;;;15.90;11.00;;;7.60;99.90;;;;;;4979678;28;88725;-33
2023/12/13 02:08:04;;;;;;;20.52;10.80;;;7.70;99.90;;;;;;4981041;28;88200;-33
2023/12/13 02:10:30;;;;;;;17.55;10.43;;;7.60;99.90;;;;;;4981059;28;90762;-30
2023/12/13 02:12:56;;;;;;;16.15;9.85;;;7.60;99.90;;;;;;4980315;28;88848;-31
2023/12/13 02:15:22;;;;;;;12.27;10.00;;;7.60;99.90;;;;;;4982285;28;88306;-30
2023/12/13 02:17:52;;;;;;;13.80;9.73;;;7.60;99.90;;;;;;4980130;28;89015;-31
2023/12/13 02:20:20;;;;;;;17.45;12.27;;;7.60;99.90;;;;;;4981655;28;90124;-32
2023/12/13 02:22:46;;;;;;;16.05;9.07;;;7.60;99.90;;;;;;4980307;28;90700;-32
2023/12/13 02:25:16;;;;;;;13.55;9.43;;;7.60;99.90;;;;;;4981929;28;89447;-31
2023/12/13 02:27:42;;;;;;;13.30;8.13;;;7.60;99.90;;;;;;4981072;28;89312;-31
2023/12/13 02:30:09;;;;;;;16.33;10.85;;;7.60;99.90;;;;;;4981048;28;91772;-31
2023/12/13 02:32:36;;;;;;;16.77;10.35;;;7.60;99.90;;;;;;4980147;28;89382;-31
2023/12/13 02:35:03;;;;;;;12.03;9.03;;;7.50;99.90;;;;;;4980265;28;88331;-30
2023/12/13 02:37:28;;;;;;;23.00;10.52;;;7.50;99.90;;;;;;4981330;28;87709;-30
2023/12/13 02:39:55;;;;;;;16.15;9.80;;;7.50;99.90;;;;;;4979652;28;89990;-32
2023/12/13 02:42:21;;;;;;;14.55;10.80;;;7.50;99.90;;;;;;4981164;28;89704;-31
2023/12/13 02:44:46;;;;;;;10.35;7.13;;;7.50;99.90;;;;;;4980431;28;89159;-32
2023/12/13 02:47:12;;;;;;;15.82;8.02;;;7.50;99.90;;;;;;4980583;28;88219;-29
2023/12/13 02:49:38;;;;;;;12.48;10.02;;;7.50;99.90;;;;;;4981414;28;90220;-30
2023/12/13 02:52:04;;;;;;;11.55;8.10;;;7.50;99.90;;;;;;4977995;28;90373;-31
2023/12/13 02:54:30;;;;;;;16.75;8.40;;;7.50;99.90;;;;;;4980531;28;89271;-32
2023/12/13 02:56:56;;;;;;;11.93;7.43;;;7.50;99.90;;;;;;4980649;28;88116;-30
2023/12/13 02:59:21;;;;;;;13.20;8.60;;;7.50;99.90;;;;;;4981522;28;88697;-30
2023/12/13 03:01:47;;;;;;;10.85;7.45;;;7.40;99.90;;;;;;4980298;28;90293;-30
2023/12/13 03:04:12;;;;;;;10.30;7.90;;;7.50;99.90;;;;;;4980516;28;89644;-32
2023/12/13 03:06:38;;;;;;;10.93;7.90;;;7.40;99.90;;;;;;4980708;28;88998;-30
2023/12/13 03:09:04;;;;;;;13.30;8.73;;;7.50;99.90;;;;;;4980747;28;90330;-31
2023/12/13 03:11:30;;;;;;;12.10;7.93;;;7.50;99.90;;;;;;4981100;28;89182;-32
2023/12/13 03:13:56;;;;;;;8.13;6.93;;;7.50;99.90;;;;;;4980127;28;90317;-33
2023/12/13 03:16:21;;;;;;;11.93;7.47;;;7.50;99.90;;;;;;4980394;28;89358;-34
2023/12/13 03:18:47;;;;;;;12.32;7.30;;;7.50;99.90;;;;;;4981532;28;90497;-30
2023/12/13 03:21:13;;;;;;;12.88;8.23;;;7.50;99.90;;;;;;4980241;28;89400;-30
2023/12/13 03:23:38;;;;;;;12.57;7.65;;;7.50;99.90;;;;;;4981847;28;88756;-32
2023/12/13 03:26:04;;;;;;;10.77;7.10;;;7.40;99.90;;;;;;4980044;28;89388;-31
2023/12/13 03:28:30;;;;;;;11.35;8.63;;;7.50;99.90;;;;;;4980336;28;90521;-32
2023/12/13 03:30:55;;;;;;;10.57;7.20;;;7.50;99.90;;;;;;4980527;28;88547;-34
2023/12/13 03:33:21;;;;;;;17.17;7.85;;;7.50;99.90;;;;;;4980276;28;90129;-31
2023/12/13 03:35:46;;;;;;;11.68;7.72;;;7.50;99.90;;;;;;4980252;28;89330;-29
2023/12/13 03:38:12;;;;;;;11.93;7.60;;;7.40;99.90;;;;;;4980101;28;88649;-32
2023/12/13 03:40:37;;;;;;;12.50;7.10;;;7.50;99.90;;;;;;4980374;28;89486;-31
2023/12/13 03:43:03;;;;;;;14.45;8.45;;;7.50;99.90;;;;;;4980169;28;90094;-32
2023/12/13 03:45:29;;;;;;;12.32;8.30;;;7.50;99.90;;;;;;4980723;28;89366;-33
2023/12/13 03:47:54;;;;;;;12.73;7.47;;;7.50;99.90;;;;;;4980018;28;89295;-32
2023/12/13 03:50:20;;;;;;;13.90;9.10;;;7.50;99.90;;;;;;4979208;28;89583;-33
2023/12/13 03:52:45;;;;;;;15.05;8.20;;;7.50;99.90;;;;;;4980967;28;89253;-31
2023/12/13 03:55:12;;;;;;;12.73;8.38;;;7.50;99.90;;;;;;4979534;28;91085;-31
2023/12/13 03:57:38;;;;;;;16.02;7.65;;;7.60;99.90;;;;;;4980667;28;90197;-33
2023/12/13 04:00:06;;;;;;;14.50;9.35;;;7.50;99.90;;;;;;4979759;28;89821;-30
2023/12/13 04:02:32;;;;;;;16.27;7.38;;;7.60;99.90;;;;;;4981848;28;87608;-30
2023/12/13 04:04:57;;;;;;;12.35;8.43;;;7.60;99.90;;;;;;4983543;28;87808;-31
2023/12/13 04:07:23;;;;;;;10.52;8.70;;;7.60;99.90;;;;;;4983333;28;89758;-30
2023/12/13 04:09:48;;;;;;;14.15;9.98;;;7.60;99.90;;;;;;4983690;28;89471;-33
2023/12/13 04:12:14;;;;;;;13.73;9.60;;;7.60;99.90;;;;;;4982871;28;88792;-30
2023/12/13 04:14:39;;;;;;;15.70;8.77;;;7.60;99.90;;;;;;4983356;28;90013;-31
2023/12/13 04:17:05;;;;;;;14.02;10.23;;;7.60;99.90;;;;;;4983438;28;90456;-30
2023/12/13 04:19:31;;;;;;;14.80;7.72;;;7.60;99.90;;;;;;4982393;28;89364;-30
2023/12/13 04:21:56;;;;;;;17.42;9.23;;;7.60;99.90;;;;;;4984275;28;88497;-29
2023/12/13 04:24:22;;;;;;;12.02;8.00;;;7.60;99.90;;;;;;4983594;28;88408;-30
2023/12/13 04:26:47;;;;;;;15.82;8.60;;;7.60;99.90;;;;;;4983222;28;89455;-31
2023/12/13 04:29:13;;;;;;;15.05;10.45;;;7.60;99.90;;;;;;4983467;28;89262;-30
2023/12/13 04:31:40;;;;;;;13.02;9.63;;;7.60;99.90;;;;;;4982592;28;88197;-30
2023/12/13 04:34:05;;;;;;;16.50;10.50;;;7.60;99.90;;;;;;4983350;28;88178;-32
2023/12/13 04:36:31;;;;;;;13.57;9.65;;;7.60;99.90;;;;;;4982013;28;91870;-31
2023/12/13 04:38:57;;;;;;;14.20;9.38;;;7.60;99.90;;;;;;4982441;28;90145;-30
2023/12/13 04:41:23;;;;;;;14.95;8.82;;;7.60;99.90;;;;;;4983124;28;90194;-32
2023/12/13 04:43:48;;;;;;;14.13;8.85;;;7.60;99.90;;;;;;4982901;28;89077;-30
2023/12/13 04:46:14;;;;;;;15.77;9.07;;;7.60;99.90;;;;;;4983111;28;90049;-33
2023/12/13 04:48:40;;;;;;;13.25;8.82;;;7.70;99.90;;;;;;4981929;28;89743;-30
2023/12/13 04:51:06;;;;;;;17.90;8.20;;;7.70;99.90;;;;;;4982784;28;89636;-32
2023/12/13 04:53:31;;;;;;;12.23;9.20;;;7.70;99.90;;;;;;4982439;28;88424;-32
2023/12/13 04:55:57;;;;;;;14.90;10.48;;;7.70;99.90;;;;;;4982858;28;88896;-32
2023/12/13 04:58:22;;;;;;;12.25;9.23;;;7.70;99.90;;;;;;4982402;28;89960;-30
2023/12/13 05:00:48;;;;;;;14.25;9.68;;;7.70;99.90;;;;;;4982399;28;87731;-32
2023/12/13 05:03:15;;;;;;;14.63;9.80;;;7.70;99.90;;;;;;4982814;28;90381;-31
2023/12/13 05:05:40;;;;;;;14.27;8.73;;;7.70;99.90;;;;;;4982900;28;90246;-32
2023/12/13 05:08:12;;;;;;;10.55;8.98;;;7.70;99.90;;;;;;4979972;28;89578;-33
2023/12/13 05:10:40;;;;;;;11.57;9.07;;;7.70;99.90;;;;;;4982484;28;89354;-33
2023/12/13 05:13:07;;;;;;;13.65;9.52;;;7.70;99.90;;;;;;4981434;28;91322;-31
2023/12/13 05:15:33;;;;;;;12.95;9.82;;;7.70;99.90;;;;;;4982713;28;90374;-31
2023/12/13 05:17:58;;;;;;;13.25;10.90;;;7.70;99.90;;;;;;4981453;28;90635;-32
2023/12/13 05:20:24;;;;;;;12.65;9.63;;;7.70;99.90;;;;;;4981953;28;88565;-30
2023/12/13 05:22:49;;;;;;;13.20;9.68;;;7.70;99.90;;;;;;4982290;28;88988;-32
2023/12/13 05:25:15;;;;;;;18.85;10.52;;;7.70;99.90;;;;;;4981987;28;90204;-30
2023/12/13 05:27:42;;;;;;;21.48;11.30;;;7.70;99.90;;;;;;4981612;28;90038;-33
2023/12/13 05:30:08;;;;;;;16.40;10.35;;;7.70;99.90;;;;;;4981291;28;87876;-31
2023/12/13 05:32:34;;;;;;;13.07;9.15;;;7.70;99.90;;;;;;4980413;28;89270;-32
2023/12/13 05:35:00;;;;;;;21.92;12.25;;;7.70;99.90;;;;;;4981606;28;90935;-33
2023/12/13 05:37:25;;;;;;;16.33;9.52;;;7.70;99.90;;;;;;4980924;28;89905;-33
2023/12/13 05:39:51;;;;;;;12.15;8.40;;;7.70;99.90;;;;;;4982743;28;88879;-30
2023/12/13 05:42:17;;;;;;;16.08;9.13;;;7.70;99.90;;;;;;4981999;28;88372;-31
2023/12/13 05:44:42;;;;;;;16.88;9.65;;;7.70;99.90;;;;;;4981938;28;91038;-31
2023/12/13 05:47:08;;;;;;;17.58;10.65;;;7.70;99.90;;;;;;4981841;28;90982;-30
2023/12/13 05:49:33;;;;;;;17.73;12.15;;;7.70;99.90;;;;;;4980865;28;89378;-31
2023/12/13 05:51:59;;;;;;;19.63;10.57;;;7.70;99.90;;;;;;4980839;28;87653;-33
2023/12/13 05:54:24;;;;;;;18.30;9.98;;;7.70;99.90;;;;;;4981179;28;90038;-30
2023/12/13 05:56:50;;;;;;;14.27;9.55;;;7.70;99.90;;;;;;4980287;28;90020;-31
2023/12/13 05:59:16;;;;;;;16.50;9.77;;;7.70;99.90;;;;;;4981092;28;88861;-33
2023/12/13 06:01:41;;;;;;;14.13;9.07;;;7.70;99.90;;;;;;4982055;28;89093;-33
2023/12/13 06:04:07;;;;;;;17.58;9.93;;;7.70;99.90;;;;;;4981451;28;90369;-31
2023/12/13 06:06:32;;;;;;;15.77;10.45;;;7.70;99.90;;;;;;4981700;28;89469;-32
2023/12/13 06:08:58;;;;;;;14.75;10.15;;;7.70;99.90;;;;;;4980922;28;90167;-30
2023/12/13 06:11:24;;;;;;;13.50;9.63;;;7.70;99.90;;;;;;4980757;28;88293;-30
2023/12/13 06:13:49;;;;;;;14.45;10.73;;;7.70;99.90;;;;;;4982053;28;89782;-33
2023/12/13 06:16:15;;;;;;;17.55;10.85;;;7.70;99.90;;;;;;4978862;28;89351;-33
2023/12/13 06:18:40;;;;;;;20.00;11.10;;;7.70;99.90;;;;;;4980291;28;89746;-32
2023/12/13 06:21:07;;;;;;;14.15;10.30;;;7.70;99.90;;;;;;4971169;28;89667;-30
2023/12/13 06:23:33;;;;;;;15.18;10.23;;;7.70;99.90;;;;;;4977333;28;90243;-30
2023/12/13 06:25:58;;;;;;;22.75;11.98;;;7.70;99.90;;;;;;4972191;28;89799;-33
2023/12/13 06:28:24;;;;;;;15.25;10.10;;;7.70;99.90;;;;;;4980664;28;88528;-32
2023/12/13 06:30:50;;;;;;;15.05;10.10;;;7.80;99.90;;;;;;4980436;28;88739;-31
2023/12/13 06:33:18;;;;;;;12.82;10.65;;;7.70;99.90;;;;;;4980061;28;90954;-32
2023/12/13 06:35:44;;;;;;;14.43;8.85;;;7.70;99.90;;;;;;4980415;28;89465;-31
2023/12/13 06:38:10;;;;;;;16.08;9.68;;;7.80;99.90;;;;;;4981328;28;88819;-29
2023/12/13 06:40:35;;;;;;;17.73;10.38;;;7.70;99.90;;;;;;4978410;28;87729;-30
2023/12/13 06:43:01;;;;;;;15.75;11.13;;;7.70;99.90;;;;;;4970044;28;90995;-33
2023/12/13 06:45:26;;;;;;;14.25;10.50;;;7.70;99.90;;;;;;4977333;28;89139;-32
2023/12/13 06:47:52;;;;;;;16.90;11.23;;;7.70;99.90;;;;;;4976156;28;89590;-33
2023/12/13 06:50:19;;;;;;;15.15;10.50;;;7.70;99.90;;;;;;4977852;28;88457;-32
2023/12/13 06:52:47;;;;;;;16.30;10.48;;;7.70;99.90;;;;;;4976721;28;90198;-31
2023/12/13 06:55:13;;;;;;;18.17;10.27;;;7.70;99.90;;;;;;4975843;28;89685;-31
2023/12/13 06:57:38;;;;;;;15.52;10.15;;;7.70;99.90;;;;;;4977366;28;88773;-32
2023/12/13 07:00:05;;;;;;;15.70;10.68;;;7.70;99.90;;;;;;4977277;28;88351;-30
2023/12/13 07:02:31;;;;;;;12.75;9.25;;;7.70;99.90;;;;;;4976971;28;91042;-31
2023/12/13 07:04:57;;;;;;;20.05;11.35;;;7.70;99.90;;;;;;4978051;28;89529;-32
2023/12/13 07:07:22;;;;;;;19.40;11.45;;;7.70;99.90;;;;;;4977363;28;88581;-32
2023/12/13 07:09:48;;;;;;;16.77;10.48;;;7.70;99.90;;;;;;4976944;28;88595;-30
2023/12/13 07:12:14;;;;;;;12.88;8.85;;;7.70;99.90;;;;;;4972557;28;89662;-33
2023/12/13 07:14:39;;;;;;;24.58;12.18;;;7.70;99.90;;;;;;4977590;28;89334;-33
2023/12/13 07:17:05;;;;;;;15.85;11.68;;;7.70;99.90;;;;;;4976331;28;88116;-31
2023/12/13 07:19:30;;;;;;;16.88;9.98;;;7.70;99.90;;;;;;4977066;28;90003;-30
2023/12/13 07:21:56;;;;;;;17.23;10.27;;;7.80;99.90;;;;;;4976035;28;90855;-30
2023/12/13 07:24:22;;;;;;;13.80;10.65;;;7.70;99.90;;;;;;4977156;28;89490;-31
2023/12/13 07:26:47;;;;;;;15.32;10.30;;;7.70;99.90;;;;;;4977607;28;88353;-31
2023/12/13 07:29:13;;;;;;;21.00;12.45;;;7.70;99.90;;;;;;4975090;28;87734;-30
2023/12/13 07:31:42;;;;;;;20.05;12.43;;;7.70;99.90;;;;;;4976924;28;90023;-30
2023/12/13 07:34:10;;;;;;;15.85;10.40;;;7.70;99.90;;;;;;4975941;28;89688;-32
2023/12/13 07:36:37;;;;;;;22.17;12.18;;;7.70;99.90;;;;;;5003421;22;89651;-30
2023/12/13 07:39:03;;;;;;;22.67;11.23;;;7.70;99.90;;;;;;4976647;28;90456;-29
2023/12/13 07:41:29;;;;;;;14.85;9.90;;;7.80;99.90;;;;;;4980204;28;90068;-31
2023/12/13 07:43:55;;;;;;;14.18;11.38;;;7.80;99.90;;;;;;4979442;28;89734;-30
2023/12/13 07:46:20;;;;;;;22.98;12.55;;;7.80;99.90;;;;;;4979527;28;87872;-31
2023/12/13 07:48:51;;;;;;;16.67;10.40;;;7.70;99.90;;;;;;4979065;28;89746;-32
2023/12/13 07:51:16;;;;;;;17.92;11.32;;;7.80;99.90;;;;;;4978821;28;90387;-32
2023/12/13 07:53:42;;;;;;;14.52;9.82;;;7.80;99.90;;;;;;4978204;28;89283;-32
2023/12/13 07:56:08;;;;;;;13.25;9.85;;;7.70;99.90;;;;;;4980017;28;88101;-30
2023/12/13 07:58:34;;;;;;;18.30;11.65;;;7.70;99.90;;;;;;4980262;28;88999;-31
2023/12/13 08:01:00;;;;;;;18.52;11.02;;;7.80;99.90;;;;;;4978796;28;88924;-31
2023/12/13 08:03:25;;;;;;;21.42;11.48;;;7.80;99.90;;;;;;4979028;28;89531;-29
2023/12/13 08:05:51;;;;;;;16.17;11.13;;;7.80;99.90;;;;;;4979361;28;89509;-33
2023/12/13 08:08:17;;;;;;;29.13;13.02;;;7.80;99.90;;;;;;4979149;28;87884;-30
2023/12/13 08:10:45;;;;;;;18.40;10.48;;;7.80;99.90;;;;;;4979243;28;89226;-33
2023/12/13 08:13:10;;;;;;;17.85;10.38;;;7.80;99.90;;;;;;4978119;28;89917;-32
2023/12/13 08:15:36;;;;;;;19.30;11.70;;;7.80;99.90;;;;;;4980011;28;89258;-32
2023/12/13 08:18:02;;;;;;;22.67;13.27;;;7.80;99.90;;;;;;4978055;28;87923;-33
2023/12/13 08:20:30;;;;;;;19.88;12.00;;;7.80;99.90;;;;;;4979333;28;88956;-33
2023/12/13 08:23:00;;;;;;;19.20;13.50;;;7.80;99.90;;;;;;4978622;28;89803;-32
2023/12/13 08:25:26;;;;;;;18.25;11.90;;;7.80;99.90;;;;;;4979855;28;88497;-32
2023/12/13 08:27:51;;;;;;;18.48;12.23;;;7.80;99.90;;;;;;4978117;28;89903;-32
2023/12/13 08:30:17;;;;;;;18.70;13.25;;;7.80;99.90;;;;;;4978768;28;90779;-31
2023/12/13 08:32:43;;;;;;;17.83;12.13;;;7.80;99.90;;;;;;4978802;28;89244;-31
2023/12/13 08:35:08;;;;;;;17.50;11.48;;;7.80;99.90;;;;;;4978249;28;88023;-29
2023/12/13 08:37:34;;;;;;;20.17;13.48;;;7.80;99.90;;;;;;4979003;28;89828;-31
2023/12/13 08:40:00;;;;;;;18.80;10.98;;;7.80;99.90;;;;;;4977795;28;90114;-33
2023/12/13 08:42:25;;;;;;;16.30;11.88;;;7.80;99.90;;;;;;4978081;28;89581;-33
2023/12/13 08:44:51;;;;;;;23.77;13.27;;;7.90;99.90;;;;;;4977514;28;89414;-32
2023/12/13 08:47:16;;;;;;;18.10;12.57;;;7.90;99.90;;;;;;4978105;28;89603;-33
2023/12/13 08:49:44;;;;;;;16.80;12.38;;;7.90;99.90;;;;;;4980998;28;90436;-30
2023/12/13 08:52:10;;;;;;;23.23;14.20;;;7.90;99.90;;;;;;4981827;28;90631;-30
2023/12/13 08:54:35;;;;;;;22.65;11.02;;;7.90;99.90;;;;;;4981995;28;88738;-32
2023/12/13 08:57:01;;;;;;;19.90;14.23;;;7.90;99.90;;;;;;4982030;28;87509;-33
2023/12/13 08:59:27;;;;;;;23.15;13.95;;;7.90;99.90;;;;;;4981864;28;89612;-29
2023/12/13 09:01:52;;;;;;;20.35;10.88;;;7.90;99.90;;;;;;4981851;28;90078;-32
2023/12/13 09:04:18;;;;;;;16.75;10.80;;;8.00;99.90;;;;;;4981259;28;87786;-33
2023/12/13 09:06:43;;;;;;;22.92;11.70;;;8.00;99.90;;;;;;4981928;28;88597;-31
2023/12/13 09:09:11;;;;;;;23.88;13.45;;;8.00;99.90;;;;;;4981740;28;91695;-30
2023/12/13 09:11:37;;;;;;;21.85;12.90;;;8.00;99.90;;;;;;4981518;28;89100;-30
2023/12/13 09:14:03;;;;;;;22.02;13.75;;;8.00;99.90;;;;;;4981898;28;88545;-32
2023/12/13 09:16:28;;;;;;;22.02;13.40;;;8.00;99.90;;;;;;4979824;28;88618;-31
2023/12/13 09:18:54;;;;;;;25.17;14.07;;;8.10;99.90;;;;;;4981708;28;88837;-31
2023/12/13 09:21:19;;;;;;;21.17;13.25;;;8.10;99.90;;;;;;4981106;28;91901;-30
2023/12/13 09:23:45;;;;;;;23.65;15.25;;;8.10;99.90;;;;;;4981392;28;89730;-32
2023/12/13 09:26:13;;;;;;;21.70;11.82;;;8.10;99.90;;;;;;4981711;28;88650;-32
2023/12/13 09:28:39;;;;;;;20.15;12.23;;;8.10;99.90;;;;;;4981076;28;90003;-30
2023/12/13 09:31:07;;;;;;;31.25;14.13;;;8.10;99.90;;;;;;4974201;28;88610;-29
2023/12/13 09:33:33;;;;;;;21.38;13.63;;;8.10;99.90;;;;;;4981346;28;89041;-29
2023/12/13 09:35:58;;;;;;;26.45;13.50;;;8.20;99.90;;;;;;4974566;28;89988;-30
2023/12/13 09:38:24;;;;;;;19.52;12.02;;;8.20;99.90;;;;;;4978921;28;90029;-30
2023/12/13 09:40:51;;;;;;;21.45;12.40;;;8.20;99.90;;;;;;4978732;28;89634;-32
2023/12/13 09:43:17;;;;;;;25.98;12.82;;;8.20;99.90;;;;;;4978583;28;89359;-31
2023/12/13 09:45:45;;;;;;;20.23;12.02;;;8.20;99.90;;;;;;4978913;28;90470;-33
2023/12/13 09:48:12;;;;;;;17.03;11.93;;;8.20;99.90;;;;;;4978814;28;90041;-32
2023/12/13 09:50:38;;;;;;;18.25;11.70;;;8.20;99.90;;;;;;4976128;28;89977;-30
2023/12/13 09:53:06;;;;;;;25.27;13.63;;;8.20;99.90;;;;;;4978330;28;89339;-30
2023/12/13 09:55:32;;;;;;;28.97;12.10;;;8.30;99.90;;;;;;4979320;28;87834;-32
2023/12/13 09:57:58;;;;;;;24.15;13.30;;;8.30;99.90;;;;;;4978726;28;90348;-30
2023/12/13 10:00:23;;;;;;;26.05;13.68;;;8.30;99.90;;;;;;4978360;28;88337;-30
2023/12/13 10:02:49;;;;;;;21.08;13.05;;;8.30;99.90;;;;;;4978944;28;89779;-32
2023/12/13 10:05:17;;;;;;;21.13;14.50;;;8.30;99.90;;;;;;4978220;28;89260;-31
2023/12/13 10:07:43;;;;;;;20.38;13.63;;;8.30;99.90;;;;;;4978640;28;90216;-32
2023/12/13 10:10:09;;;;;;;18.77;12.68;;;8.30;99.90;;;;;;4978669;28;89898;-30
2023/12/13 10:12:35;;;;;;;20.77;12.80;;;8.30;99.90;;;;;;4978192;28;88616;-32
2023/12/13 10:15:11;;;;;;;21.60;12.95;;;8.30;99.90;;;;;;4977811;28;88699;-31
2023/12/13 10:17:38;;;;;;;21.75;10.57;;;8.30;99.90;;;;;;4972218;28;91023;-30
2023/12/13 10:20:06;;;;;;;21.00;13.80;;;8.30;99.90;;;;;;4979650;28;89712;-31
2023/12/13 10:22:32;;;;;;;26.38;14.63;;;8.30;99.90;;;;;;4980021;28;88647;-29
2023/12/13 10:24:58;;;;;;;22.42;13.38;;;8.40;99.90;;;;;;4980572;28;89328;-33
2023/12/13 10:27:24;;;;;;;19.45;12.57;;;8.40;99.90;;;;;;4979537;28;90308;-31
2023/12/13 10:29:51;;;;;;;15.00;11.73;;;8.30;99.90;;;;;;4980852;28;89880;-30
2023/12/13 10:32:18;;;;;;;21.13;12.15;;;8.40;99.90;;;;;;4980284;28;88989;-31
2023/12/13 10:34:44;;;;;;;21.38;11.82;;;8.40;99.90;;;;;;4980899;28;87527;-31
2023/12/13 10:37:11;;;;;;;24.63;11.07;;;8.40;99.90;;;;;;4978996;28;90472;-31
2023/12/13 10:39:46;;;;;;;17.23;10.30;;;8.40;99.90;;;;;;4980631;28;90225;-31
2023/12/13 10:42:16;;;;;;;29.40;13.05;;;8.40;99.90;;;;;;4979701;28;89337;-32
2023/12/13 10:44:45;;;;;;;21.85;11.20;;;8.40;99.90;;;;;;4981107;28;88422;-31
2023/12/13 10:47:13;;;;;;;19.67;12.15;;;8.40;99.90;;;;;;4979033;28;90357;-31
2023/12/13 10:49:40;;;;;;;28.10;12.43;;;8.40;99.90;;;;;;4980166;28;90142;-31
2023/12/13 10:52:08;;;;;;;21.35;11.68;;;8.40;99.90;;;;;;4979768;28;88930;-32
2023/12/13 10:54:35;;;;;;;29.48;14.73;;;8.40;99.90;;;;;;4981384;28;89629;-33
2023/12/13 10:57:00;;;;;;;21.58;12.38;;;8.40;99.90;;;;;;4979582;28;90247;-31
2023/12/13 10:59:27;;;;;;;17.52;12.27;;;8.40;99.90;;;;;;4980045;28;89498;-33
2023/12/13 11:01:54;;;;;;;25.52;14.32;;;8.40;99.90;;;;;;4980357;28;88283;-33
2023/12/13 11:04:21;;;;;;;38.72;14.30;;;8.50;99.90;;;;;;4980208;28;89054;-33
2023/12/13 11:06:47;;;;;;;21.33;9.98;;;8.40;99.90;;;;;;4979332;28;91095;-29
2023/12/13 11:09:17;;;;;;;18.20;11.93;;;8.40;99.90;;;;;;4980463;28;89483;-32
2023/12/13 11:11:44;;;;;;;19.30;12.63;;;8.50;99.90;;;;;;4978975;28;88994;-33
2023/12/13 11:14:18;;;;;;;21.95;11.07;;;8.50;99.90;;;;;;4979781;28;87534;-29
2023/12/13 11:16:49;;;;;;;19.00;11.68;;;8.50;99.90;;;;;;4979409;28;90342;-31
2023/12/13 11:19:19;;;;;;;22.23;11.68;;;8.50;99.90;;;;;;4978773;28;89721;-32
2023/12/13 11:21:46;;;;;;;16.08;12.20;;;8.50;99.90;;;;;;4979990;28;90027;-31
2023/12/13 11:24:20;;;;;;;20.20;13.10;;;8.50;99.90;;;;;;4979991;28;89920;-29
2023/12/13 11:26:51;;;;;;;15.30;11.35;;;8.50;99.90;;;;;;4980102;28;90404;-32
2023/12/13 11:29:30;;;;;;;36.85;13.00;;;8.50;99.90;;;;;;4979490;28;91016;-31
2023/12/13 11:32:01;;;;;;;20.60;10.45;;;8.50;99.90;;;;;;4979619;28;88006;-30
2023/12/13 11:34:41;;;;;;;17.95;12.48;;;8.60;99.90;;;;;;4980317;28;88010;-30
2023/12/13 11:37:08;;;;;;;19.20;11.15;;;8.60;99.90;;;;;;4978975;28;89988;-31
2023/12/13 11:39:35;;;;;;;23.25;13.00;;;8.50;99.90;;;;;;4979811;28;90270;-30
2023/12/13 11:42:02;;;;;;;18.77;11.88;;;8.60;99.90;;;;;;4978643;28;88865;-31
2023/12/13 11:44:33;;;;;;;18.38;13.05;;;8.60;99.90;;;;;;4979507;28;89754;-33
2023/12/13 11:47:03;;;;;;;21.30;13.57;;;8.60;99.90;;;;;;4978783;28;90260;-30
2023/12/13 11:49:29;;;;;;;16.67;11.75;;;8.60;99.90;;;;;;4979690;28;89270;-29
2023/12/13 11:51:56;;;;;;;29.17;14.65;;;8.60;99.90;;;;;;4979343;28;89505;-32
2023/12/13 11:54:22;;;;;;;25.77;14.25;;;8.60;99.90;;;;;;4980113;28;88647;-30
2023/12/13 11:56:48;;;;;;;19.52;14.68;;;8.70;99.90;;;;;;4978044;28;90379;-30
2023/12/13 11:59:14;;;;;;;31.05;14.02;;;8.60;99.90;;;;;;4979399;28;89142;-32
2023/12/13 12:01:40;;;;;;;23.08;14.63;;;8.60;99.90;;;;;;4978800;28;89990;-32
2023/12/13 12:04:07;;;;;;;16.98;11.20;;;8.70;99.90;;;;;;4979017;28;90011;-31
2023/12/13 12:06:32;;;;;;;25.13;12.63;;;8.60;99.90;;;;;;4979182;28;90728;-33
2023/12/13 12:09:03;;;;;;;24.60;13.57;;;8.70;99.90;;;;;;4978948;28;89686;-33
2023/12/13 12:11:28;;;;;;;16.45;12.18;;;8.70;99.90;;;;;;4979008;28;89127;-30
2023/12/13 12:13:57;;;;;;;26.25;14.57;;;8.70;99.90;;;;;;4979188;28;88169;-32
2023/12/13 12:16:22;;;;;;;17.92;11.73;;;8.70;99.90;;;;;;4979036;28;90334;-34
2023/12/13 12:18:49;;;;;;;38.20;13.90;;;8.70;99.90;;;;;;4978140;28;89588;-32
2023/12/13 12:21:15;;;;;;;24.42;13.98;;;8.70;99.90;;;;;;4978285;28;89357;-30
2023/12/13 12:23:43;;;;;;;23.15;14.02;;;8.80;99.90;;;;;;4982195;28;88804;-29
2023/12/13 12:26:10;;;;;;;21.07;13.30;;;8.70;99.90;;;;;;4981948;28;90200;-30
2023/12/13 12:28:38;;;;;;;21.40;14.70;;;8.80;99.90;;;;;;4981866;28;89024;-30
2023/12/13 12:31:04;;;;;;;20.97;12.43;;;8.80;99.90;;;;;;4981943;28;88243;-30
2023/12/13 12:33:30;;;;;;;27.38;12.93;;;8.80;99.90;;;;;;4983244;28;89170;-30
2023/12/13 12:35:57;;;;;;;19.85;12.95;;;8.80;99.90;;;;;;4981397;28;90282;-31